Time;durP1;ratioP1;P1;durP2;ratioP2;P2;SDS_P1;SDS_P2;PMS_P1;PMS_P2;Temp;Humidity;BMP_temperature;BMP_pressure;BME280_temperature;BME280_humidity;BME280_pressure;Samples;Min_cycle;Max_cycle;Signal;HPM_P1;HPM_P2
2021/04/28 00:00:55;;;;;;;12.35;11.07;;;10.70;99.90;;;;;;5085701;28;20201;-78
2021/04/28 00:03:22;;;;;;;12.95;11.75;;;10.70;99.90;;;;;;5080664;28;20550;-77
2021/04/28 00:05:49;;;;;;;18.38;16.10;;;10.70;99.90;;;;;;5084687;28;20227;-77
2021/04/28 00:10:46;;;;;;;18.10;16.20;;;10.70;99.90;;;;;;5062591;28;20707;-72
2021/04/28 00:13:16;;;;;;;15.27;13.65;;;10.70;99.90;;;;;;5068763;28;20599;-73
2021/04/28 00:15:45;;;;;;;14.38;13.07;;;10.70;99.90;;;;;;5068201;28;20622;-74
2021/04/28 00:18:11;;;;;;;13.15;11.82;;;10.80;99.90;;;;;;5069736;28;20202;-72
2021/04/28 00:20:39;;;;;;;13.57;12.18;;;10.80;99.90;;;;;;5044165;28;20341;-74
2021/04/28 00:23:06;;;;;;;12.55;11.35;;;10.80;99.90;;;;;;5045975;28;20195;-74
2021/04/28 00:25:34;;;;;;;18.67;16.33;;;10.80;99.90;;;;;;5051061;28;20195;-75
2021/04/28 00:28:00;;;;;;;14.32;13.02;;;10.80;99.90;;;;;;5049606;28;20747;-72
2021/04/28 00:30:28;;;;;;;13.23;11.90;;;10.80;99.90;;;;;;5048479;28;20222;-72
2021/04/28 00:32:55;;;;;;;13.90;12.50;;;10.90;99.90;;;;;;5048517;28;20982;-73
2021/04/28 00:35:23;;;;;;;14.63;13.10;;;10.90;99.90;;;;;;5048018;28;20203;-72
2021/04/28 00:37:50;;;;;;;13.77;12.48;;;10.90;99.90;;;;;;5049322;28;20199;-74
2021/04/28 00:40:20;;;;;;;12.50;11.40;;;10.90;99.90;;;;;;5048829;28;20747;-74
2021/04/28 00:42:48;;;;;;;11.82;10.70;;;10.90;99.90;;;;;;5051563;28;20195;-72
2021/04/28 00:45:16;;;;;;;12.15;11.05;;;10.90;99.90;;;;;;5046952;28;20203;-73
2021/04/28 00:47:44;;;;;;;12.80;11.60;;;10.90;99.90;;;;;;5050088;28;20219;-75
2021/04/28 00:50:13;;;;;;;12.85;11.55;;;10.90;99.90;;;;;;5046146;28;20245;-74
2021/04/28 00:52:40;;;;;;;14.85;12.13;;;10.90;99.90;;;;;;5050233;28;20199;-75
2021/04/28 00:55:08;;;;;;;12.90;11.60;;;10.90;99.90;;;;;;5047975;28;20195;-73
2021/04/28 00:57:35;;;;;;;14.57;12.55;;;10.90;99.90;;;;;;5046396;28;20329;-77
2021/04/28 01:00:06;;;;;;;10.73;9.73;;;10.90;99.90;;;;;;5047887;28;20218;-73
2021/04/28 01:02:32;;;;;;;12.75;11.45;;;10.90;99.90;;;;;;5046141;28;20234;-73
2021/04/28 01:05:00;;;;;;;11.93;10.73;;;11.00;99.90;;;;;;5050107;28;20672;-71
2021/04/28 01:07:27;;;;;;;11.50;10.38;;;10.90;99.90;;;;;;5047092;28;20590;-72
2021/04/28 01:09:54;;;;;;;11.50;10.40;;;11.00;99.90;;;;;;5055267;28;20593;-71
2021/04/28 01:12:22;;;;;;;13.43;12.13;;;11.00;99.90;;;;;;5053132;28;20202;-71
2021/04/28 01:14:51;;;;;;;13.52;11.85;;;10.90;99.90;;;;;;5058216;28;20206;-74
2021/04/28 01:17:18;;;;;;;11.40;10.30;;;10.90;99.90;;;;;;5056970;28;20253;-72
2021/04/28 01:19:46;;;;;;;12.18;11.00;;;10.90;99.90;;;;;;5060642;28;20218;-75
2021/04/28 01:22:15;;;;;;;11.75;10.65;;;10.90;99.90;;;;;;5055193;28;20218;-75
2021/04/28 01:24:42;;;;;;;12.98;11.68;;;10.90;99.90;;;;;;5053750;28;20199;-73
2021/04/28 01:27:13;;;;;;;13.68;12.32;;;10.90;99.90;;;;;;5051243;28;20221;-74
2021/04/28 01:29:42;;;;;;;12.25;11.05;;;10.80;99.90;;;;;;5049766;28;20269;-76
2021/04/28 01:32:10;;;;;;;11.00;10.00;;;10.80;99.90;;;;;;5047309;28;20562;-74
2021/04/28 01:34:40;;;;;;;10.48;9.55;;;10.70;99.90;;;;;;5051776;28;20198;-72
2021/04/28 01:37:08;;;;;;;12.75;11.55;;;10.80;99.90;;;;;;5054447;28;20217;-73
2021/04/28 01:39:35;;;;;;;10.65;9.75;;;10.80;99.90;;;;;;5048658;28;20245;-77
2021/04/28 01:42:04;;;;;;;11.52;10.35;;;10.80;99.90;;;;;;5051716;28;20206;-75
2021/04/28 01:44:31;;;;;;;12.18;10.98;;;10.80;99.90;;;;;;5051458;28;20276;-73
2021/04/28 01:46:58;;;;;;;12.30;10.60;;;10.70;99.90;;;;;;5051879;28;20215;-78
2021/04/28 01:49:26;;;;;;;12.20;10.88;;;10.70;99.90;;;;;;5045493;28;20573;-72
2021/04/28 01:51:55;;;;;;;12.65;11.45;;;10.70;99.90;;;;;;5052027;28;20190;-72
2021/04/28 01:54:22;;;;;;;11.55;10.32;;;10.70;99.90;;;;;;5047437;28;20210;-75
2021/04/28 01:56:51;;;;;;;12.70;11.50;;;10.70;99.90;;;;;;5050371;28;20192;-73
2021/04/28 01:59:20;;;;;;;14.50;12.98;;;10.70;99.90;;;;;;5044738;28;20214;-74
2021/04/28 02:01:49;;;;;;;13.82;12.40;;;10.60;99.90;;;;;;5052835;28;20199;-75
2021/04/28 02:04:16;;;;;;;12.95;11.75;;;10.60;99.90;;;;;;5048318;28;20203;-74
2021/04/28 02:06:43;;;;;;;12.45;11.30;;;10.50;99.90;;;;;;5051809;28;20246;-72
2021/04/28 02:09:10;;;;;;;12.32;11.13;;;10.50;99.90;;;;;;5051288;28;20257;-72
2021/04/28 02:11:37;;;;;;;12.93;11.70;;;10.50;99.90;;;;;;5051308;28;20795;-72
2021/04/28 02:14:05;;;;;;;14.55;13.15;;;10.60;99.90;;;;;;5051739;28;20559;-75
2021/04/28 02:16:37;;;;;;;13.10;11.77;;;10.50;99.90;;;;;;5050499;28;20700;-71
2021/04/28 02:19:05;;;;;;;12.82;11.07;;;10.50;99.90;;;;;;5051361;28;20762;-73
2021/04/28 02:21:32;;;;;;;12.90;11.50;;;10.50;99.90;;;;;;5053720;28;20210;-74
2021/04/28 02:23:59;;;;;;;12.40;11.30;;;10.60;99.90;;;;;;5053330;28;20628;-73
2021/04/28 02:26:25;;;;;;;14.73;13.23;;;10.60;99.90;;;;;;5052187;28;20561;-73
2021/04/28 02:28:52;;;;;;;13.65;12.25;;;10.50;99.90;;;;;;5052030;28;20597;-76
2021/04/28 02:31:18;;;;;;;15.45;13.88;;;10.50;99.90;;;;;;5050681;28;20202;-72
2021/04/28 02:33:46;;;;;;;14.95;13.43;;;10.50;99.90;;;;;;5051602;28;20249;-75
2021/04/28 02:36:13;;;;;;;14.85;12.95;;;10.40;99.90;;;;;;5052680;28;20266;-71
2021/04/28 02:38:44;;;;;;;16.55;14.85;;;10.40;99.90;;;;;;5048749;28;20727;-73
2021/04/28 02:41:14;;;;;;;15.50;13.90;;;10.30;99.90;;;;;;5052745;28;20199;-75
2021/04/28 02:43:42;;;;;;;17.33;15.70;;;10.20;99.90;;;;;;5049567;28;20276;-75
2021/04/28 02:46:13;;;;;;;16.60;14.85;;;10.20;99.90;;;;;;5051747;28;20206;-76
2021/04/28 02:48:43;;;;;;;15.45;13.95;;;10.20;99.90;;;;;;5054784;28;20210;-74
2021/04/28 02:51:11;;;;;;;17.30;15.60;;;10.20;99.90;;;;;;5053064;28;20547;-72
2021/04/28 02:53:41;;;;;;;16.90;14.77;;;10.20;99.90;;;;;;5054116;28;20199;-77
2021/04/28 02:56:08;;;;;;;15.45;13.88;;;10.20;99.90;;;;;;5050430;28;20191;-76
2021/04/28 02:58:35;;;;;;;14.55;13.15;;;10.20;99.90;;;;;;5049824;28;20215;-74
2021/04/28 03:01:03;;;;;;;16.42;14.73;;;10.20;99.90;;;;;;5055680;28;20207;-75
2021/04/28 03:03:30;;;;;;;15.35;13.77;;;10.20;99.90;;;;;;5052572;28;20202;-74
2021/04/28 03:05:57;;;;;;;16.02;14.45;;;10.20;99.90;;;;;;5053101;28;20199;-74
2021/04/28 03:08:24;;;;;;;16.45;14.88;;;10.20;99.90;;;;;;5053712;28;20222;-74
2021/04/28 03:10:52;;;;;;;16.83;15.02;;;10.10;99.90;;;;;;5049163;28;20198;-73
2021/04/28 03:13:20;;;;;;;19.50;17.42;;;10.00;99.90;;;;;;5049936;28;20222;-74
2021/04/28 03:15:48;;;;;;;19.98;17.88;;;10.00;99.90;;;;;;5048271;28;20202;-74
2021/04/28 03:18:15;;;;;;;17.65;15.98;;;10.00;99.90;;;;;;5048300;28;20249;-73
2021/04/28 03:20:45;;;;;;;15.50;13.90;;;10.00;99.90;;;;;;5050227;28;20248;-73
2021/04/28 03:23:12;;;;;;;15.10;13.60;;;10.00;99.90;;;;;;5045894;28;20229;-73
2021/04/28 03:25:40;;;;;;;15.85;14.07;;;10.00;99.90;;;;;;5045704;28;20203;-71
2021/04/28 03:28:07;;;;;;;14.63;13.23;;;10.00;99.90;;;;;;5045008;28;20211;-76
2021/04/28 03:30:34;;;;;;;15.13;13.57;;;9.90;99.90;;;;;;5047650;28;20214;-75
2021/04/28 03:33:00;;;;;;;16.02;14.43;;;10.00;99.90;;;;;;5049328;28;20191;-74
2021/04/28 03:35:27;;;;;;;14.60;13.10;;;10.00;99.90;;;;;;5047610;28;20206;-72
2021/04/28 03:37:54;;;;;;;13.68;12.23;;;10.00;99.90;;;;;;5051715;28;20207;-75
2021/04/28 03:40:20;;;;;;;14.60;12.95;;;9.90;99.90;;;;;;5050744;28;20226;-74
2021/04/28 03:42:48;;;;;;;12.48;11.30;;;9.90;99.90;;;;;;5046683;28;20329;-75
2021/04/28 03:45:15;;;;;;;13.20;11.90;;;9.90;99.90;;;;;;5047641;28;20199;-73
2021/04/28 03:47:42;;;;;;;13.98;12.57;;;9.90;99.90;;;;;;5048170;28;20223;-72
2021/04/28 03:50:10;;;;;;;15.55;14.05;;;9.80;99.90;;;;;;5051720;28;20215;-74
2021/04/28 03:52:37;;;;;;;16.80;15.00;;;9.80;99.90;;;;;;5047311;28;20214;-73
2021/04/28 03:55:05;;;;;;;15.45;13.88;;;9.70;99.90;;;;;;5047726;28;20237;-72
2021/04/28 03:57:32;;;;;;;15.38;13.88;;;9.60;99.90;;;;;;5049864;28;20199;-74
2021/04/28 03:59:59;;;;;;;16.05;14.35;;;9.60;99.90;;;;;;5049070;28;20226;-74
2021/04/28 04:02:26;;;;;;;14.50;13.00;;;9.60;99.90;;;;;;5049561;28;20366;-73
2021/04/28 04:04:52;;;;;;;14.30;12.90;;;9.60;99.90;;;;;;5051292;28;20206;-73
2021/04/28 04:07:19;;;;;;;13.93;12.52;;;9.60;99.90;;;;;;5052154;28;20677;-72
2021/04/28 04:09:46;;;;;;;16.33;14.73;;;9.60;99.90;;;;;;5049626;28;20312;-73
2021/04/28 04:12:13;;;;;;;16.75;15.15;;;9.60;99.90;;;;;;5048211;28;20226;-74
2021/04/28 04:14:40;;;;;;;15.05;13.65;;;9.60;99.90;;;;;;5054989;28;20206;-72
2021/04/28 04:17:08;;;;;;;14.90;13.40;;;9.60;99.90;;;;;;5047495;28;20325;-72
2021/04/28 04:19:35;;;;;;;14.05;12.57;;;9.60;99.90;;;;;;5050399;28;20214;-73
2021/04/28 04:22:01;;;;;;;13.57;12.25;;;9.60;99.90;;;;;;5053139;28;20202;-71
2021/04/28 04:24:28;;;;;;;13.02;11.73;;;9.60;99.90;;;;;;5049726;28;20209;-72
2021/04/28 04:26:54;;;;;;;12.88;11.68;;;9.70;99.90;;;;;;5047685;28;20233;-72
2021/04/28 04:29:21;;;;;;;14.82;13.23;;;9.70;99.90;;;;;;5051522;28;20244;-72
2021/04/28 04:31:48;;;;;;;14.75;13.30;;;9.70;99.90;;;;;;5046700;28;20261;-78
2021/04/28 04:34:15;;;;;;;13.63;12.23;;;9.80;99.90;;;;;;5050808;28;20195;-75
2021/04/28 04:36:43;;;;;;;15.70;13.07;;;9.80;99.90;;;;;;5043046;28;20203;-74
2021/04/28 04:39:09;;;;;;;13.63;12.32;;;9.80;99.90;;;;;;5050521;28;20249;-71
2021/04/28 04:41:36;;;;;;;13.43;12.13;;;9.80;99.90;;;;;;5049166;28;20195;-75
2021/04/28 04:44:03;;;;;;;12.98;11.77;;;9.80;99.90;;;;;;5052596;28;20191;-73
2021/04/28 04:46:30;;;;;;;12.15;11.05;;;9.70;99.90;;;;;;5050213;28;20199;-72
2021/04/28 04:48:56;;;;;;;12.85;11.63;;;9.80;99.90;;;;;;5049585;28;20214;-74
2021/04/28 04:51:24;;;;;;;13.95;12.55;;;9.80;99.90;;;;;;5053715;28;20210;-75
2021/04/28 04:53:51;;;;;;;15.25;13.38;;;9.80;99.90;;;;;;5051958;28;20218;-73
2021/04/28 04:56:17;;;;;;;12.43;11.23;;;9.90;99.90;;;;;;5054206;28;20195;-73
2021/04/28 04:58:44;;;;;;;13.63;12.23;;;9.90;99.90;;;;;;5055014;28;20211;-76
2021/04/28 05:01:13;;;;;;;12.38;11.23;;;10.00;99.90;;;;;;5048313;28;20673;-71
2021/04/28 05:03:40;;;;;;;11.77;10.68;;;10.00;99.90;;;;;;5045386;28;20219;-74
2021/04/28 05:06:06;;;;;;;12.50;11.18;;;10.10;99.90;;;;;;5046327;28;20211;-73
2021/04/28 05:08:34;;;;;;;11.32;10.30;;;10.20;99.90;;;;;;5045825;28;20227;-75
2021/04/28 05:11:00;;;;;;;11.70;10.57;;;10.40;99.90;;;;;;5044324;28;20207;-74
2021/04/28 05:13:27;;;;;;;12.40;11.20;;;10.60;99.90;;;;;;5047164;28;20196;-72
2021/04/28 05:15:54;;;;;;;19.95;17.85;;;10.80;99.90;;;;;;5045396;28;20381;-73
2021/04/28 05:18:20;;;;;;;19.25;17.23;;;11.00;99.90;;;;;;5046225;28;20210;-72
2021/04/28 05:20:47;;;;;;;19.15;17.17;;;11.10;99.90;;;;;;5043595;28;20695;-73
2021/04/28 05:23:14;;;;;;;17.58;15.80;;;11.20;99.90;;;;;;5046618;28;20211;-73
2021/04/28 05:25:41;;;;;;;17.52;15.70;;;11.40;99.90;;;;;;5046505;28;20195;-75
2021/04/28 05:28:08;;;;;;;16.52;14.82;;;11.50;99.90;;;;;;5053394;28;20211;-76
2021/04/28 05:30:34;;;;;;;15.93;14.43;;;11.50;99.90;;;;;;5052705;28;20215;-75
2021/04/28 05:33:01;;;;;;;16.63;15.02;;;11.60;99.90;;;;;;5050760;28;20241;-73
2021/04/28 05:35:28;;;;;;;16.73;15.05;;;11.50;99.90;;;;;;5049061;28;20221;-76
2021/04/28 05:37:54;;;;;;;16.48;14.88;;;11.50;99.90;;;;;;5051108;28;20221;-77
2021/04/28 05:40:21;;;;;;;16.92;15.23;;;11.50;99.90;;;;;;5053218;28;20265;-73
2021/04/28 05:42:49;;;;;;;15.20;13.60;;;11.40;99.90;;;;;;5052846;28;20191;-77
2021/04/28 05:45:16;;;;;;;14.98;13.43;;;11.50;99.90;;;;;;5050604;28;20215;-75
2021/04/28 05:47:43;;;;;;;15.27;13.65;;;11.50;99.90;;;;;;5043107;28;20735;-72
2021/04/28 05:50:13;;;;;;;16.38;14.63;;;11.40;99.90;;;;;;5051003;28;20219;-73
2021/04/28 05:52:39;;;;;;;16.38;14.68;;;11.40;99.90;;;;;;5051207;28;20203;-77
2021/04/28 05:55:08;;;;;;;16.35;14.63;;;11.40;99.90;;;;;;5052839;28;20225;-74
2021/04/28 05:57:35;;;;;;;17.70;16.00;;;11.30;99.90;;;;;;5050104;28;20187;-73
2021/04/28 06:00:05;;;;;;;15.88;14.35;;;11.30;99.90;;;;;;5052007;28;20700;-72
2021/04/28 06:02:32;;;;;;;17.83;15.93;;;11.30;99.90;;;;;;5045216;28;20210;-74
2021/04/28 06:04:58;;;;;;;16.35;14.82;;;11.30;99.90;;;;;;5039102;28;20206;-75
2021/04/28 06:07:25;;;;;;;16.00;14.43;;;11.20;99.90;;;;;;5042583;28;20222;-71
2021/04/28 06:09:51;;;;;;;15.80;14.10;;;11.20;99.90;;;;;;5077444;22;21090;-79
2021/04/28 06:12:18;;;;;;;15.20;13.77;;;11.20;99.90;;;;;;5085390;28;20202;-78
2021/04/28 06:14:44;;;;;;;16.42;14.82;;;11.20;99.90;;;;;;5086405;28;20197;-79
2021/04/28 06:17:12;;;;;;;16.52;14.88;;;11.30;99.90;;;;;;5082643;28;20190;-79
2021/04/28 06:19:39;;;;;;;18.67;16.25;;;11.30;99.90;;;;;;5079446;28;20324;-80
2021/04/28 06:22:05;;;;;;;16.60;14.95;;;11.40;99.90;;;;;;5066278;28;20232;-78
2021/04/28 06:24:32;;;;;;;16.20;14.55;;;11.50;99.90;;;;;;5072459;28;20205;-80
2021/04/28 06:26:59;;;;;;;17.02;15.30;;;11.60;99.90;;;;;;5068732;28;20257;-80
2021/04/28 06:29:25;;;;;;;18.70;16.90;;;11.80;99.90;;;;;;5070127;28;20699;-78
2021/04/28 06:31:52;;;;;;;19.20;17.23;;;12.20;99.90;;;;;;5073262;28;20201;-79
2021/04/28 06:34:19;;;;;;;20.10;18.00;;;12.60;99.90;;;;;;5072597;28;20211;-80
2021/04/28 06:36:46;;;;;;;16.65;15.05;;;12.90;99.90;;;;;;5070199;28;20712;-78
2021/04/28 06:39:13;;;;;;;17.95;16.13;;;13.20;99.90;;;;;;5076586;28;20226;-79
2021/04/28 06:41:39;;;;;;;17.10;15.38;;;13.50;99.90;;;;;;5073652;28;20194;-80
2021/04/28 06:44:06;;;;;;;18.88;16.75;;;13.70;99.90;;;;;;5073821;28;20201;-78
2021/04/28 06:46:33;;;;;;;20.40;18.10;;;14.10;99.90;;;;;;5071439;28;20195;-78
2021/04/28 06:48:59;;;;;;;20.52;18.02;;;14.30;99.90;;;;;;5070590;28;20271;-78
2021/04/28 06:51:27;;;;;;;18.75;16.90;;;14.30;99.90;;;;;;5071782;28;20202;-78
2021/04/28 06:53:54;;;;;;;20.38;18.30;;;14.40;99.90;;;;;;5072370;28;20204;-78
2021/04/28 06:56:21;;;;;;;19.48;17.48;;;14.60;99.90;;;;;;5067842;28;20696;-78
2021/04/28 06:58:49;;;;;;;21.23;19.13;;;14.60;99.90;;;;;;5065925;28;20281;-78
2021/04/28 07:01:16;;;;;;;19.40;17.48;;;14.80;99.90;;;;;;5077097;28;20222;-80
2021/04/28 07:03:42;;;;;;;21.10;18.92;;;14.70;99.90;;;;;;5072329;28;20206;-77
2021/04/28 07:06:11;;;;;;;19.20;16.98;;;14.80;99.90;;;;;;5069228;28;20202;-79
2021/04/28 07:08:39;;;;;;;19.90;17.50;;;14.80;99.90;;;;;;5075458;28;20237;-80
2021/04/28 07:11:06;;;;;;;17.75;15.95;;;15.00;99.90;;;;;;5064941;28;20249;-79
2021/04/28 07:13:32;;;;;;;21.52;19.23;;;15.20;99.90;;;;;;5070466;28;20212;-78
2021/04/28 07:15:59;;;;;;;22.83;19.48;;;15.20;99.90;;;;;;5075862;28;20206;-79
2021/04/28 07:18:26;;;;;;;19.85;17.85;;;15.20;99.90;;;;;;5072275;28;20194;-78
2021/04/28 07:20:52;;;;;;;21.90;19.65;;;15.30;99.90;;;;;;5073823;28;20210;-79
2021/04/28 07:23:19;;;;;;;21.52;19.17;;;15.60;99.90;;;;;;5075234;28;20205;-78
2021/04/28 07:25:47;;;;;;;22.15;19.88;;;15.70;99.90;;;;;;5069838;28;20201;-77
2021/04/28 07:28:13;;;;;;;20.10;18.00;;;15.70;99.90;;;;;;5068425;28;20247;-78
2021/04/28 07:30:40;;;;;;;23.15;19.60;;;15.80;99.90;;;;;;5069196;28;20226;-78
2021/04/28 07:33:07;;;;;;;22.52;20.27;;;15.90;99.90;;;;;;5072660;28;20623;-80
2021/04/28 07:35:33;;;;;;;19.88;17.88;;;16.00;99.90;;;;;;5071929;28;20213;-77
2021/04/28 07:38:00;;;;;;;23.17;19.95;;;16.10;99.90;;;;;;5075996;28;20248;-80
2021/04/28 07:40:27;;;;;;;22.63;20.33;;;16.00;99.90;;;;;;5076894;28;20226;-78
2021/04/28 07:42:54;;;;;;;22.00;19.80;;;16.10;99.90;;;;;;5071599;28;20202;-79
2021/04/28 07:45:21;;;;;;;21.48;19.20;;;16.00;99.90;;;;;;5072143;28;20198;-78
2021/04/28 07:47:48;;;;;;;22.27;19.98;;;16.20;99.90;;;;;;5069881;28;20214;-79
2021/04/28 07:50:17;;;;;;;19.92;17.80;;;16.40;99.90;;;;;;5077370;28;20542;-78
2021/04/28 07:52:44;;;;;;;22.55;20.25;;;16.60;99.90;;;;;;5069954;28;20200;-77
2021/04/28 07:55:11;;;;;;;23.02;19.60;;;16.60;99.90;;;;;;5076011;28;20301;-78
2021/04/28 07:57:38;;;;;;;20.75;18.65;;;16.60;99.90;;;;;;5072872;28;20194;-77
2021/04/28 08:00:09;;;;;;;22.65;19.27;;;16.80;99.90;;;;;;5075799;28;20228;-80
2021/04/28 08:02:35;;;;;;;22.80;18.73;;;16.90;99.90;;;;;;5074374;28;20722;-78
2021/04/28 08:05:02;;;;;;;18.83;16.83;;;16.90;99.90;;;;;;5070245;28;20206;-77
2021/04/28 08:07:29;;;;;;;22.02;19.83;;;17.00;99.90;;;;;;5071730;28;20259;-77
2021/04/28 08:09:55;;;;;;;21.55;19.33;;;17.20;99.90;;;;;;5069735;28;20225;-80
2021/04/28 08:12:22;;;;;;;21.70;19.60;;;17.20;99.90;;;;;;5070748;28;20191;-77
2021/04/28 08:14:48;;;;;;;21.33;19.15;;;17.30;99.90;;;;;;5066140;28;20210;-78
2021/04/28 08:17:16;;;;;;;18.55;16.75;;;17.30;99.90;;;;;;5070891;28;20194;-81
2021/04/28 08:19:45;;;;;;;16.98;15.18;;;17.40;99.90;;;;;;5075501;28;20322;-78
2021/04/28 08:22:12;;;;;;;16.95;14.82;;;17.50;99.90;;;;;;5077124;28;20195;-78
2021/04/28 08:24:38;;;;;;;16.77;15.18;;;17.80;99.90;;;;;;5082858;28;20263;-77
2021/04/28 08:27:06;;;;;;;16.65;15.05;;;17.80;99.90;;;;;;5078073;28;20193;-78
2021/04/28 08:29:33;;;;;;;16.17;14.50;;;18.00;99.90;;;;;;5076537;28;20229;-80
2021/04/28 08:31:59;;;;;;;14.90;13.50;;;18.30;99.90;;;;;;5074956;28;20332;-80
2021/04/28 08:34:27;;;;;;;17.40;15.63;;;18.40;99.90;;;;;;5072469;28;20198;-77
2021/04/28 08:36:53;;;;;;;14.80;13.30;;;18.50;99.90;;;;;;5078882;28;20692;-77
2021/04/28 08:39:20;;;;;;;16.48;14.70;;;18.30;99.90;;;;;;5075582;28;20276;-78
2021/04/28 08:41:48;;;;;;;15.05;13.55;;;18.20;99.90;;;;;;5073535;28;20194;-77
2021/04/28 08:44:15;;;;;;;14.82;13.32;;;18.30;99.90;;;;;;5077382;28;20197;-81
2021/04/28 08:46:42;;;;;;;14.95;13.45;;;18.30;99.90;;;;;;5066764;28;20653;-80
2021/04/28 08:49:09;;;;;;;13.55;11.73;;;18.30;99.90;;;;;;5074286;28;20249;-78
2021/04/28 08:51:38;;;;;;;14.95;12.57;;;18.40;99.90;;;;;;5074198;28;20699;-77
2021/04/28 08:54:05;;;;;;;13.82;12.38;;;18.40;99.90;;;;;;5077237;28;20777;-78
2021/04/28 08:56:32;;;;;;;14.80;12.10;;;18.70;99.90;;;;;;5072907;28;20191;-76
2021/04/28 08:59:04;;;;;;;13.60;11.68;;;19.00;99.90;;;;;;5074424;28;20630;-77
2021/04/28 09:01:34;;;;;;;14.30;12.80;;;19.00;99.90;;;;;;5074340;28;20202;-77
2021/04/28 09:04:02;;;;;;;12.18;11.07;;;19.00;99.90;;;;;;5077354;28;20603;-76
2021/04/28 09:06:33;;;;;;;10.30;9.30;;;19.00;99.90;;;;;;5076599;28;20201;-77
2021/04/28 09:09:06;;;;;;;11.70;10.60;;;19.30;99.90;;;;;;5071892;28;20373;-79
2021/04/28 09:11:38;;;;;;;12.00;10.80;;;19.50;99.90;;;;;;5072809;28;20202;-79
2021/04/28 09:14:06;;;;;;;14.18;12.88;;;19.50;99.90;;;;;;5073807;28;20300;-78
2021/04/28 09:16:33;;;;;;;13.43;12.02;;;19.50;99.90;;;;;;5079395;28;20270;-78
2021/04/28 09:19:00;;;;;;;11.80;10.60;;;19.50;99.90;;;;;;5075833;28;21754;-80
2021/04/28 09:21:49;;;;;;;13.60;12.30;;;19.50;99.90;;;;;;5077582;28;20246;-78
2021/04/28 09:24:25;;;;;;;11.75;10.65;;;19.40;99.90;;;;;;5076394;28;20293;-79
2021/04/28 09:26:54;;;;;;;12.85;11.60;;;19.60;99.90;;;;;;5074675;28;20279;-77
2021/04/28 09:29:24;;;;;;;12.77;11.60;;;19.70;99.90;;;;;;5071897;28;20226;-78
2021/04/28 09:31:59;;;;;;;11.98;10.80;;;19.90;99.90;;;;;;5079199;28;20197;-78
2021/04/28 09:34:30;;;;;;;12.10;10.90;;;20.10;99.90;;;;;;5077154;28;20232;-76
2021/04/28 09:37:07;;;;;;;12.77;11.27;;;19.90;99.90;;;;;;5074567;28;20194;-81
2021/04/28 09:39:44;;;;;;;11.32;10.15;;;19.80;99.90;;;;;;5076584;28;20225;-79
2021/04/28 09:42:12;;;;;;;10.70;9.60;;;19.80;99.90;;;;;;5073763;28;20202;-79
2021/04/28 09:44:45;;;;;;;10.43;9.45;;;19.90;99.90;;;;;;5077165;28;20198;-78
2021/04/28 09:47:15;;;;;;;11.18;9.95;;;20.30;99.90;;;;;;5073625;28;20198;-77
2021/04/28 09:49:52;;;;;;;11.23;10.13;;;20.40;99.90;;;;;;5074348;28;20217;-80
2021/04/28 09:52:22;;;;;;;10.00;9.10;;;20.30;99.90;;;;;;5075621;28;20201;-78
2021/04/28 09:54:52;;;;;;;10.45;9.35;;;20.30;99.90;;;;;;5070161;28;20290;-77
2021/04/28 09:57:32;;;;;;;9.18;8.32;;;20.20;99.90;;;;;;5071658;28;20693;-76
2021/04/28 09:59:59;;;;;;;10.68;8.60;;;20.30;99.90;;;;;;5074682;28;20225;-77
2021/04/28 10:02:27;;;;;;;12.70;11.40;;;20.60;99.90;;;;;;5078024;28;20210;-78
2021/04/28 10:05:14;;;;;;;10.70;9.60;;;20.60;99.90;;;;;;5075299;28;20229;-79
2021/04/28 10:07:41;;;;;;;11.55;10.35;;;20.70;99.90;;;;;;5077967;28;20616;-79
2021/04/28 10:10:09;;;;;;;12.27;10.43;;;21.00;99.90;;;;;;5072729;28;20229;-79
2021/04/28 10:12:36;;;;;;;12.05;10.43;;;21.20;99.90;;;;;;5073950;28;20505;-79
2021/04/28 10:15:03;;;;;;;10.95;9.82;;;21.00;99.90;;;;;;5074921;28;20198;-75
2021/04/28 10:17:31;;;;;;;11.20;9.40;;;21.10;99.90;;;;;;5080038;28;20566;-78
2021/04/28 10:19:58;;;;;;;8.88;7.90;;;21.20;99.90;;;;;;5071454;28;20768;-80
2021/04/28 10:22:26;;;;;;;9.85;8.85;;;21.20;99.90;;;;;;5074383;28;20208;-78
2021/04/28 10:24:54;;;;;;;9.20;8.25;;;21.20;99.90;;;;;;5071913;28;20205;-77
2021/04/28 10:27:24;;;;;;;9.10;8.30;;;21.20;99.90;;;;;;5073838;28;20630;-76
2021/04/28 10:29:53;;;;;;;6.97;6.38;;;21.20;99.90;;;;;;5068727;28;20225;-77
2021/04/28 10:32:21;;;;;;;6.97;6.28;;;21.20;99.90;;;;;;5074079;28;20738;-79
2021/04/28 10:34:49;;;;;;;7.72;6.95;;;21.40;99.90;;;;;;5069418;28;20202;-80
2021/04/28 10:37:18;;;;;;;5.93;5.43;;;21.40;99.90;;;;;;5071650;28;20268;-79
2021/04/28 10:39:47;;;;;;;6.63;5.97;;;21.60;99.90;;;;;;5076904;28;20213;-79
2021/04/28 10:42:26;;;;;;;6.80;6.07;;;21.80;99.90;;;;;;5074070;28;20251;-79
2021/04/28 10:44:52;;;;;;;6.90;6.20;;;21.90;99.90;;;;;;5072037;28;20202;-79
2021/04/28 10:47:35;;;;;;;7.28;6.53;;;21.90;99.90;;;;;;5079915;28;20200;-77
2021/04/28 10:50:09;;;;;;;6.88;5.95;;;21.80;99.90;;;;;;5076956;28;20226;-77
2021/04/28 10:52:40;;;;;;;7.13;6.20;;;21.80;99.90;;;;;;5079565;28;20266;-79
2021/04/28 10:55:38;;;;;;;6.07;5.38;;;21.90;99.90;;;;;;5076923;28;20196;-78
2021/04/28 10:58:39;;;;;;;5.85;5.35;;;21.80;99.90;;;;;;5076647;28;20590;-78
2021/04/28 11:01:16;;;;;;;6.82;6.10;;;21.80;99.90;;;;;;5072762;28;20232;-78
2021/04/28 11:03:48;;;;;;;5.95;5.35;;;21.50;99.90;;;;;;5077218;28;20205;-79
2021/04/28 11:06:30;;;;;;;5.75;5.18;;;21.50;99.90;;;;;;5074473;28;20248;-78
2021/04/28 11:09:14;;;;;;;8.38;5.30;;;21.50;99.90;;;;;;5078611;28;20210;-78
2021/04/28 11:11:48;;;;;;;6.97;6.15;;;21.60;99.90;;;;;;5073656;28;20306;-79
2021/04/28 11:14:24;;;;;;;5.82;5.07;;;21.70;99.90;;;;;;5075921;28;20660;-79
2021/04/28 11:16:53;;;;;;;6.47;5.97;;;21.70;99.90;;;;;;5075669;28;20626;-80
2021/04/28 11:19:21;;;;;;;9.35;6.47;;;22.00;99.90;;;;;;5073835;28;20276;-78
2021/04/28 11:22:12;;;;;;;6.82;5.70;;;21.90;99.90;;;;;;5073894;28;20275;-80
2021/04/28 11:24:57;;;;;;;7.00;5.55;;;21.80;99.90;;;;;;5076548;28;20198;-78
2021/04/28 11:27:43;;;;;;;6.18;5.60;;;21.70;99.90;;;;;;5075667;28;20289;-79
2021/04/28 11:30:30;;;;;;;5.70;5.15;;;21.60;99.90;;;;;;5073202;28;20565;-78
2021/04/28 11:33:38;;;;;;;5.10;4.60;;;21.80;99.90;;;;;;5073156;28;20908;-76
2021/04/28 11:36:19;;;;;;;7.25;5.60;;;22.00;99.10;;;;;;5066229;28;20229;-80
2021/04/28 11:38:48;;;;;;;5.10;4.68;;;21.90;99.90;;;;;;5072880;28;20691;-79
2021/04/28 11:41:23;;;;;;;4.90;4.38;;;21.90;99.90;;;;;;5072106;28;20199;-81
2021/04/28 11:43:53;;;;;;;4.20;3.80;;;22.10;99.40;;;;;;5069827;28;20194;-78
2021/04/28 11:46:22;;;;;;;4.25;3.85;;;22.20;99.10;;;;;;5078098;28;20202;-80
2021/04/28 11:48:50;;;;;;;4.10;3.75;;;22.20;97.60;;;;;;5076220;28;20225;-78
2021/04/28 11:51:18;;;;;;;4.63;4.20;;;21.90;97.30;;;;;;5073480;28;20635;-79
2021/04/28 11:53:48;;;;;;;4.82;4.32;;;21.80;97.60;;;;;;5076716;28;20739;-78
2021/04/28 11:56:38;;;;;;;5.30;4.80;;;21.80;97.20;;;;;;5072190;28;20264;-78
2021/04/28 11:59:06;;;;;;;5.13;4.63;;;21.90;97.20;;;;;;5074748;28;20196;-79
2021/04/28 12:01:35;;;;;;;6.38;5.15;;;21.90;98.10;;;;;;5069257;28;20194;-79
2021/04/28 12:04:06;;;;;;;4.72;4.32;;;22.00;97.60;;;;;;5074471;28;20235;-80
2021/04/28 12:06:35;;;;;;;4.95;4.50;;;22.10;97.10;;;;;;5072916;28;20208;-79
2021/04/28 12:09:17;;;;;;;6.63;5.20;;;22.20;97.10;;;;;;5075923;28;20685;-79
2021/04/28 12:11:46;;;;;;;5.60;5.07;;;22.20;97.10;;;;;;5096890;22;21646;-71
2021/04/28 12:14:13;;;;;;;5.20;4.70;;;22.30;96.50;;;;;;5072345;28;20206;-71
2021/04/28 12:16:52;;;;;;;6.70;4.70;;;22.30;96.70;;;;;;5077230;28;20669;-71
2021/04/28 12:19:19;;;;;;;5.43;4.53;;;22.30;96.40;;;;;;5081913;28;20782;-71
2021/04/28 12:21:52;;;;;;;6.78;5.38;;;22.10;96.30;;;;;;5059430;28;20229;-71
2021/04/28 12:24:24;;;;;;;5.47;4.85;;;22.10;96.60;;;;;;5059776;28;20202;-72
2021/04/28 12:27:05;;;;;;;6.15;5.35;;;22.00;96.70;;;;;;5062703;28;20202;-72
2021/04/28 12:29:31;;;;;;;5.30;4.80;;;21.90;95.90;;;;;;5062164;28;20630;-71
2021/04/28 12:31:59;;;;;;;4.80;4.28;;;22.00;96.10;;;;;;5065685;28;20218;-71
2021/04/28 12:34:25;;;;;;;5.50;5.00;;;22.30;96.00;;;;;;5062155;28;20454;-71
2021/04/28 12:36:52;;;;;;;5.28;4.30;;;22.30;96.20;;;;;;5064744;28;20656;-71
2021/04/28 12:39:29;;;;;;;5.30;4.80;;;22.50;96.20;;;;;;5070501;28;20198;-71
2021/04/28 12:41:57;;;;;;;8.50;4.53;;;22.60;95.80;;;;;;5059635;28;20217;-72
2021/04/28 12:44:24;;;;;;;5.03;4.57;;;22.70;95.30;;;;;;5060745;28;20198;-71